sensor_id;sensor_type;location;lat;lon;timestamp;P1;durP1;ratioP1;P2;durP2;ratioP2
57231;SDS011;43488;46.934;8.276;2023-09-08T00:01:43;617.72;;;330.75;;
57231;SDS011;43488;46.934;8.276;2023-09-08T00:04:11;623.00;;;337.90;;
57231;SDS011;43488;46.934;8.276;2023-09-08T00:06:38;601.90;;;385.88;;
57231;SDS011;43488;46.934;8.276;2023-09-08T00:09:06;619.45;;;341.55;;
57231;SDS011;43488;46.934;8.276;2023-09-08T00:11:34;625.20;;;347.38;;
57231;SDS011;43488;46.934;8.276;2023-09-08T00:14:01;619.53;;;346.30;;
57231;SDS011;43488;46.934;8.276;2023-09-08T00:16:30;606.22;;;397.23;;
57231;SDS011;43488;46.934;8.276;2023-09-08T00:18:58;611.97;;;408.10;;
57231;SDS011;43488;46.934;8.276;2023-09-08T00:21:25;625.67;;;351.70;;
57231;SDS011;43488;46.934;8.276;2023-09-08T00:23:53;616.40;;;337.77;;
57231;SDS011;43488;46.934;8.276;2023-09-08T00:26:22;621.33;;;352.90;;
57231;SDS011;43488;46.934;8.276;2023-09-08T00:28:49;613.00;;;415.73;;
57231;SDS011;43488;46.934;8.276;2023-09-08T00:31:16;611.60;;;375.10;;
57231;SDS011;43488;46.934;8.276;2023-09-08T00:33:44;631.10;;;329.95;;
57231;SDS011;43488;46.934;8.276;2023-09-08T00:36:11;608.92;;;391.73;;
57231;SDS011;43488;46.934;8.276;2023-09-08T00:38:38;623.60;;;313.65;;
57231;SDS011;43488;46.934;8.276;2023-09-08T00:41:06;601.80;;;353.48;;
57231;SDS011;43488;46.934;8.276;2023-09-08T00:43:33;601.33;;;367.95;;
57231;SDS011;43488;46.934;8.276;2023-09-08T00:46:00;602.70;;;367.13;;
57231;SDS011;43488;46.934;8.276;2023-09-08T00:48:29;599.25;;;360.98;;
57231;SDS011;43488;46.934;8.276;2023-09-08T00:50:56;597.38;;;379.30;;
57231;SDS011;43488;46.934;8.276;2023-09-08T00:53:24;620.78;;;317.70;;
57231;SDS011;43488;46.934;8.276;2023-09-08T00:55:52;600.00;;;384.70;;
57231;SDS011;43488;46.934;8.276;2023-09-08T00:58:20;620.38;;;321.00;;
57231;SDS011;43488;46.934;8.276;2023-09-08T01:00:48;606.13;;;373.90;;
57231;SDS011;43488;46.934;8.276;2023-09-08T01:03:15;603.65;;;368.88;;
57231;SDS011;43488;46.934;8.276;2023-09-08T01:05:43;616.20;;;318.17;;
57231;SDS011;43488;46.934;8.276;2023-09-08T01:08:13;611.45;;;388.55;;
57231;SDS011;43488;46.934;8.276;2023-09-08T01:10:41;623.13;;;324.35;;
57231;SDS011;43488;46.934;8.276;2023-09-08T01:13:09;611.92;;;308.83;;
57231;SDS011;43488;46.934;8.276;2023-09-08T01:15:37;614.10;;;309.25;;
57231;SDS011;43488;46.934;8.276;2023-09-08T01:18:05;624.75;;;335.02;;
57231;SDS011;43488;46.934;8.276;2023-09-08T01:26:29;605.63;;;374.73;;
57231;SDS011;43488;46.934;8.276;2023-09-08T01:29:02;626.65;;;312.38;;
57231;SDS011;43488;46.934;8.276;2023-09-08T01:31:31;612.47;;;367.23;;
57231;SDS011;43488;46.934;8.276;2023-09-08T01:34:00;613.55;;;375.83;;
57231;SDS011;43488;46.934;8.276;2023-09-08T01:36:34;618.70;;;311.25;;
57231;SDS011;43488;46.934;8.276;2023-09-08T01:39:02;610.50;;;389.90;;
57231;SDS011;43488;46.934;8.276;2023-09-08T01:41:31;620.42;;;309.45;;
57231;SDS011;43488;46.934;8.276;2023-09-08T01:43:59;625.10;;;318.63;;
57231;SDS011;43488;46.934;8.276;2023-09-08T01:46:31;606.92;;;384.80;;
57231;SDS011;43488;46.934;8.276;2023-09-08T01:48:58;632.53;;;334.80;;
57231;SDS011;43488;46.934;8.276;2023-09-08T01:51:26;619.20;;;301.60;;
57231;SDS011;43488;46.934;8.276;2023-09-08T01:53:53;606.83;;;383.75;;
57231;SDS011;43488;46.934;8.276;2023-09-08T01:56:21;625.83;;;330.52;;
57231;SDS011;43488;46.934;8.276;2023-09-08T01:58:49;624.50;;;323.80;;
57231;SDS011;43488;46.934;8.276;2023-09-08T02:01:16;614.42;;;298.30;;
57231;SDS011;43488;46.934;8.276;2023-09-08T02:03:43;619.63;;;311.50;;
57231;SDS011;43488;46.934;8.276;2023-09-08T02:06:11;595.80;;;368.23;;
57231;SDS011;43488;46.934;8.276;2023-09-08T02:08:39;617.85;;;312.23;;
57231;SDS011;43488;46.934;8.276;2023-09-08T02:11:07;597.08;;;370.98;;
57231;SDS011;43488;46.934;8.276;2023-09-08T02:13:36;595.13;;;370.67;;
57231;SDS011;43488;46.934;8.276;2023-09-08T02:16:15;616.50;;;305.02;;
57231;SDS011;43488;46.934;8.276;2023-09-08T02:18:43;615.65;;;306.65;;
57231;SDS011;43488;46.934;8.276;2023-09-08T02:21:11;610.45;;;373.90;;
57231;SDS011;43488;46.934;8.276;2023-09-08T02:23:39;615.95;;;307.10;;
57231;SDS011;43488;46.934;8.276;2023-09-08T02:26:06;601.50;;;371.55;;
57231;SDS011;43488;46.934;8.276;2023-09-08T02:28:33;599.03;;;380.75;;
57231;SDS011;43488;46.934;8.276;2023-09-08T02:31:00;616.65;;;308.50;;
57231;SDS011;43488;46.934;8.276;2023-09-08T02:33:28;605.83;;;340.80;;
57231;SDS011;43488;46.934;8.276;2023-09-08T02:36:00;605.38;;;363.42;;
57231;SDS011;43488;46.934;8.276;2023-09-08T02:38:32;628.90;;;296.65;;
57231;SDS011;43488;46.934;8.276;2023-09-08T02:41:00;615.65;;;276.38;;
57231;SDS011;43488;46.934;8.276;2023-09-08T02:43:27;607.50;;;349.98;;
57231;SDS011;43488;46.934;8.276;2023-09-08T02:45:55;619.92;;;288.55;;
57231;SDS011;43488;46.934;8.276;2023-09-08T02:48:23;616.50;;;277.88;;
57231;SDS011;43488;46.934;8.276;2023-09-08T02:50:51;593.20;;;343.02;;
57231;SDS011;43488;46.934;8.276;2023-09-08T02:53:20;619.22;;;282.63;;
57231;SDS011;43488;46.934;8.276;2023-09-08T02:55:48;603.03;;;338.77;;
57231;SDS011;43488;46.934;8.276;2023-09-08T02:58:15;625.63;;;295.92;;
57231;SDS011;43488;46.934;8.276;2023-09-08T03:00:43;621.22;;;283.23;;
57231;SDS011;43488;46.934;8.276;2023-09-08T03:03:10;599.03;;;347.98;;
57231;SDS011;43488;46.934;8.276;2023-09-08T03:05:38;600.20;;;356.13;;
57231;SDS011;43488;46.934;8.276;2023-09-08T03:08:05;601.80;;;360.38;;
57231;SDS011;43488;46.934;8.276;2023-09-08T03:10:33;620.47;;;279.38;;
57231;SDS011;43488;46.934;8.276;2023-09-08T03:13:04;611.67;;;262.25;;
57231;SDS011;43488;46.934;8.276;2023-09-08T03:15:31;615.63;;;271.25;;
57231;SDS011;43488;46.934;8.276;2023-09-08T03:18:00;600.95;;;355.65;;
57231;SDS011;43488;46.934;8.276;2023-09-08T03:20:27;599.88;;;362.83;;
57231;SDS011;43488;46.934;8.276;2023-09-08T03:22:55;619.65;;;287.33;;
57231;SDS011;43488;46.934;8.276;2023-09-08T03:25:23;599.63;;;358.50;;
57231;SDS011;43488;46.934;8.276;2023-09-08T03:27:50;625.35;;;296.95;;
57231;SDS011;43488;46.934;8.276;2023-09-08T03:30:17;621.95;;;281.50;;
57231;SDS011;43488;46.934;8.276;2023-09-08T03:32:44;606.28;;;366.05;;
57231;SDS011;43488;46.934;8.276;2023-09-08T03:35:12;617.15;;;289.10;;
57231;SDS011;43488;46.934;8.276;2023-09-08T03:37:39;613.03;;;258.10;;
57231;SDS011;43488;46.934;8.276;2023-09-08T03:40:07;599.35;;;338.83;;
57231;SDS011;43488;46.934;8.276;2023-09-08T03:42:36;591.75;;;313.88;;
57231;SDS011;43488;46.934;8.276;2023-09-08T03:45:03;629.45;;;279.80;;
57231;SDS011;43488;46.934;8.276;2023-09-08T03:47:31;615.75;;;261.20;;
57231;SDS011;43488;46.934;8.276;2023-09-08T03:49:59;615.15;;;255.02;;
57231;SDS011;43488;46.934;8.276;2023-09-08T03:52:27;618.97;;;347.85;;
57231;SDS011;43488;46.934;8.276;2023-09-08T03:54:55;602.42;;;349.55;;
57231;SDS011;43488;46.934;8.276;2023-09-08T03:57:22;636.75;;;297.58;;
57231;SDS011;43488;46.934;8.276;2023-09-08T03:59:50;627.60;;;276.80;;
57231;SDS011;43488;46.934;8.276;2023-09-08T04:02:17;620.85;;;276.60;;
57231;SDS011;43488;46.934;8.276;2023-09-08T04:04:45;591.90;;;331.23;;
57231;SDS011;43488;46.934;8.276;2023-09-08T04:07:12;631.15;;;282.75;;
57231;SDS011;43488;46.934;8.276;2023-09-08T04:09:40;607.58;;;351.27;;
57231;SDS011;43488;46.934;8.276;2023-09-08T04:12:09;613.05;;;256.90;;
57231;SDS011;43488;46.934;8.276;2023-09-08T04:14:38;618.38;;;270.58;;
57231;SDS011;43488;46.934;8.276;2023-09-08T04:17:05;604.58;;;346.98;;
57231;SDS011;43488;46.934;8.276;2023-09-08T04:19:33;633.70;;;290.25;;
57231;SDS011;43488;46.934;8.276;2023-09-08T04:22:00;622.28;;;271.85;;
57231;SDS011;43488;46.934;8.276;2023-09-08T04:24:28;616.10;;;262.45;;
57231;SDS011;43488;46.934;8.276;2023-09-08T04:26:55;625.17;;;259.85;;
57231;SDS011;43488;46.934;8.276;2023-09-08T04:29:23;604.45;;;341.00;;
57231;SDS011;43488;46.934;8.276;2023-09-08T04:31:50;588.03;;;328.02;;
57231;SDS011;43488;46.934;8.276;2023-09-08T04:34:18;608.80;;;345.98;;
57231;SDS011;43488;46.934;8.276;2023-09-08T04:36:45;623.95;;;266.05;;
57231;SDS011;43488;46.934;8.276;2023-09-08T04:39:13;602.05;;;339.10;;
57231;SDS011;43488;46.934;8.276;2023-09-08T04:41:42;591.50;;;322.90;;
57231;SDS011;43488;46.934;8.276;2023-09-08T04:44:09;612.50;;;248.23;;
57231;SDS011;43488;46.934;8.276;2023-09-08T04:46:37;616.50;;;254.38;;
57231;SDS011;43488;46.934;8.276;2023-09-08T04:49:04;614.72;;;245.50;;
57231;SDS011;43488;46.934;8.276;2023-09-08T04:51:32;623.55;;;265.23;;
57231;SDS011;43488;46.934;8.276;2023-09-08T04:53:59;630.38;;;273.25;;
57231;SDS011;43488;46.934;8.276;2023-09-08T04:56:27;598.40;;;334.77;;
57231;SDS011;43488;46.934;8.276;2023-09-08T04:58:54;627.20;;;270.00;;
57231;SDS011;43488;46.934;8.276;2023-09-08T05:01:22;613.50;;;359.58;;
57231;SDS011;43488;46.934;8.276;2023-09-08T05:03:49;607.08;;;344.40;;
57231;SDS011;43488;46.934;8.276;2023-09-08T05:06:17;625.60;;;270.73;;
57231;SDS011;43488;46.934;8.276;2023-09-08T05:08:44;596.80;;;339.48;;
57231;SDS011;43488;46.934;8.276;2023-09-08T05:11:11;622.50;;;268.60;;
57231;SDS011;43488;46.934;8.276;2023-09-08T05:13:39;606.08;;;349.80;;
57231;SDS011;43488;46.934;8.276;2023-09-08T05:16:06;594.88;;;333.92;;
57231;SDS011;43488;46.934;8.276;2023-09-08T05:18:40;603.72;;;352.20;;
57231;SDS011;43488;46.934;8.276;2023-09-08T05:21:08;612.00;;;350.85;;
57231;SDS011;43488;46.934;8.276;2023-09-08T05:23:35;608.17;;;331.73;;
57231;SDS011;43488;46.934;8.276;2023-09-08T05:26:03;625.50;;;276.80;;
57231;SDS011;43488;46.934;8.276;2023-09-08T05:28:30;619.00;;;260.80;;
57231;SDS011;43488;46.934;8.276;2023-09-08T05:30:58;631.38;;;281.77;;
57231;SDS011;43488;46.934;8.276;2023-09-08T05:33:25;629.40;;;267.08;;
57231;SDS011;43488;46.934;8.276;2023-09-08T05:35:52;610.83;;;250.90;;
57231;SDS011;43488;46.934;8.276;2023-09-08T05:38:19;626.67;;;270.95;;
57231;SDS011;43488;46.934;8.276;2023-09-08T05:40:47;613.72;;;254.85;;
57231;SDS011;43488;46.934;8.276;2023-09-08T05:43:14;608.33;;;345.92;;
57231;SDS011;43488;46.934;8.276;2023-09-08T05:45:42;628.17;;;280.98;;
57231;SDS011;43488;46.934;8.276;2023-09-08T05:48:09;618.25;;;264.00;;
57231;SDS011;43488;46.934;8.276;2023-09-08T05:50:36;611.50;;;344.60;;
57231;SDS011;43488;46.934;8.276;2023-09-08T05:53:04;611.58;;;352.58;;
57231;SDS011;43488;46.934;8.276;2023-09-08T05:55:32;607.85;;;338.77;;
57231;SDS011;43488;46.934;8.276;2023-09-08T05:57:59;603.22;;;344.85;;
57231;SDS011;43488;46.934;8.276;2023-09-08T06:00:27;613.75;;;342.17;;
57231;SDS011;43488;46.934;8.276;2023-09-08T06:02:54;626.08;;;278.83;;
57231;SDS011;43488;46.934;8.276;2023-09-08T06:05:21;615.45;;;262.50;;
57231;SDS011;43488;46.934;8.276;2023-09-08T06:07:49;603.65;;;347.92;;
57231;SDS011;43488;46.934;8.276;2023-09-08T06:10:16;597.05;;;342.33;;
57231;SDS011;43488;46.934;8.276;2023-09-08T06:12:43;601.72;;;347.80;;
57231;SDS011;43488;46.934;8.276;2023-09-08T06:15:10;620.33;;;358.05;;
57231;SDS011;43488;46.934;8.276;2023-09-08T06:17:38;628.05;;;290.48;;
57231;SDS011;43488;46.934;8.276;2023-09-08T06:20:06;607.17;;;346.77;;
57231;SDS011;43488;46.934;8.276;2023-09-08T06:22:35;635.35;;;293.00;;
57231;SDS011;43488;46.934;8.276;2023-09-08T06:25:02;626.60;;;279.25;;
57231;SDS011;43488;46.934;8.276;2023-09-08T06:27:30;609.22;;;360.38;;
57231;SDS011;43488;46.934;8.276;2023-09-08T06:29:57;625.65;;;275.38;;
57231;SDS011;43488;46.934;8.276;2023-09-08T06:32:24;627.13;;;265.02;;
57231;SDS011;43488;46.934;8.276;2023-09-08T06:34:51;633.38;;;364.90;;
57231;SDS011;43488;46.934;8.276;2023-09-08T06:37:22;609.20;;;335.27;;
57231;SDS011;43488;46.934;8.276;2023-09-08T06:39:49;623.22;;;267.45;;
57231;SDS011;43488;46.934;8.276;2023-09-08T06:42:17;617.30;;;342.02;;
57231;SDS011;43488;46.934;8.276;2023-09-08T06:44:44;623.88;;;269.50;;
57231;SDS011;43488;46.934;8.276;2023-09-08T06:47:13;633.03;;;285.35;;
57231;SDS011;43488;46.934;8.276;2023-09-08T06:49:40;621.28;;;343.05;;
57231;SDS011;43488;46.934;8.276;2023-09-08T06:52:07;633.53;;;272.70;;
57231;SDS011;43488;46.934;8.276;2023-09-08T06:54:35;633.95;;;269.33;;
57231;SDS011;43488;46.934;8.276;2023-09-08T06:57:02;614.05;;;326.23;;
57231;SDS011;43488;46.934;8.276;2023-09-08T06:59:30;616.47;;;333.13;;
57231;SDS011;43488;46.934;8.276;2023-09-08T07:01:57;614.65;;;332.90;;
57231;SDS011;43488;46.934;8.276;2023-09-08T07:04:25;638.47;;;279.88;;
57231;SDS011;43488;46.934;8.276;2023-09-08T07:06:52;619.30;;;333.88;;
57231;SDS011;43488;46.934;8.276;2023-09-08T07:09:21;608.60;;;324.27;;
57231;SDS011;43488;46.934;8.276;2023-09-08T07:11:49;629.67;;;272.75;;
57231;SDS011;43488;46.934;8.276;2023-09-08T07:14:16;616.72;;;337.95;;
57231;SDS011;43488;46.934;8.276;2023-09-08T07:16:43;629.50;;;272.75;;
57231;SDS011;43488;46.934;8.276;2023-09-08T07:19:13;623.67;;;352.27;;
57231;SDS011;43488;46.934;8.276;2023-09-08T07:21:40;643.78;;;294.90;;
57231;SDS011;43488;46.934;8.276;2023-09-08T07:24:07;620.05;;;352.10;;
57231;SDS011;43488;46.934;8.276;2023-09-08T07:26:35;647.58;;;304.73;;
57231;SDS011;43488;46.934;8.276;2023-09-08T07:29:02;626.42;;;273.23;;
57231;SDS011;43488;46.934;8.276;2023-09-08T07:31:29;613.10;;;337.58;;
57231;SDS011;43488;46.934;8.276;2023-09-08T07:33:56;636.42;;;287.13;;
57231;SDS011;43488;46.934;8.276;2023-09-08T07:36:24;622.90;;;351.17;;
57231;SDS011;43488;46.934;8.276;2023-09-08T07:38:51;625.40;;;261.95;;
57231;SDS011;43488;46.934;8.276;2023-09-08T07:41:19;618.40;;;339.75;;
57231;SDS011;43488;46.934;8.276;2023-09-08T07:43:46;622.47;;;267.23;;
57231;SDS011;43488;46.934;8.276;2023-09-08T07:46:13;640.88;;;285.85;;
57231;SDS011;43488;46.934;8.276;2023-09-08T07:48:41;632.95;;;276.20;;
57231;SDS011;43488;46.934;8.276;2023-09-08T07:51:08;618.33;;;354.33;;
57231;SDS011;43488;46.934;8.276;2023-09-08T07:53:35;636.97;;;284.30;;
57231;SDS011;43488;46.934;8.276;2023-09-08T07:56:03;612.97;;;340.60;;
57231;SDS011;43488;46.934;8.276;2023-09-08T07:58:31;635.05;;;380.08;;
57231;SDS011;43488;46.934;8.276;2023-09-08T08:00:59;636.17;;;273.95;;
57231;SDS011;43488;46.934;8.276;2023-09-08T08:03:27;612.65;;;339.42;;
57231;SDS011;43488;46.934;8.276;2023-09-08T08:05:56;609.72;;;336.42;;
57231;SDS011;43488;46.934;8.276;2023-09-08T08:08:25;614.23;;;341.20;;
57231;SDS011;43488;46.934;8.276;2023-09-08T08:10:52;638.05;;;300.42;;
57231;SDS011;43488;46.934;8.276;2023-09-08T08:13:20;623.03;;;354.40;;
57231;SDS011;43488;46.934;8.276;2023-09-08T08:15:48;629.78;;;368.92;;
57231;SDS011;43488;46.934;8.276;2023-09-08T08:18:16;644.80;;;312.00;;
57231;SDS011;43488;46.934;8.276;2023-09-08T08:20:44;627.38;;;358.90;;
57231;SDS011;43488;46.934;8.276;2023-09-08T08:23:11;627.15;;;365.38;;
57231;SDS011;43488;46.934;8.276;2023-09-08T08:25:40;635.08;;;280.50;;
57231;SDS011;43488;46.934;8.276;2023-09-08T08:28:07;638.85;;;292.15;;
57231;SDS011;43488;46.934;8.276;2023-09-08T08:30:35;623.03;;;272.40;;
57231;SDS011;43488;46.934;8.276;2023-09-08T08:33:02;642.20;;;291.98;;
57231;SDS011;43488;46.934;8.276;2023-09-08T08:35:30;616.58;;;355.52;;
57231;SDS011;43488;46.934;8.276;2023-09-08T08:37:58;637.95;;;274.58;;
57231;SDS011;43488;46.934;8.276;2023-09-08T08:40:27;632.65;;;279.33;;
57231;SDS011;43488;46.934;8.276;2023-09-08T08:42:58;633.28;;;361.23;;
57231;SDS011;43488;46.934;8.276;2023-09-08T08:45:25;633.10;;;281.98;;
57231;SDS011;43488;46.934;8.276;2023-09-08T08:47:55;638.47;;;275.55;;
57231;SDS011;43488;46.934;8.276;2023-09-08T08:50:25;622.63;;;344.02;;
57231;SDS011;43488;46.934;8.276;2023-09-08T08:52:53;626.60;;;343.17;;
57231;SDS011;43488;46.934;8.276;2023-09-08T08:55:25;619.72;;;331.65;;
57231;SDS011;43488;46.934;8.276;2023-09-08T08:57:53;614.70;;;332.23;;
57231;SDS011;43488;46.934;8.276;2023-09-08T09:00:21;654.15;;;307.92;;
57231;SDS011;43488;46.934;8.276;2023-09-08T09:02:49;630.70;;;357.83;;
57231;SDS011;43488;46.934;8.276;2023-09-08T09:05:19;633.38;;;342.25;;
57231;SDS011;43488;46.934;8.276;2023-09-08T09:07:46;646.28;;;294.35;;
57231;SDS011;43488;46.934;8.276;2023-09-08T09:10:16;631.72;;;349.75;;
57231;SDS011;43488;46.934;8.276;2023-09-08T09:12:44;636.55;;;351.88;;
57231;SDS011;43488;46.934;8.276;2023-09-08T09:15:11;621.58;;;339.98;;
57231;SDS011;43488;46.934;8.276;2023-09-08T09:17:39;627.40;;;338.65;;
57231;SDS011;43488;46.934;8.276;2023-09-08T09:20:13;617.03;;;362.90;;
57231;SDS011;43488;46.934;8.276;2023-09-08T09:22:44;649.38;;;347.05;;
57231;SDS011;43488;46.934;8.276;2023-09-08T09:25:24;644.60;;;315.20;;
57231;SDS011;43488;46.934;8.276;2023-09-08T09:27:58;632.15;;;378.60;;
57231;SDS011;43488;46.934;8.276;2023-09-08T09:30:27;630.75;;;367.67;;
57231;SDS011;43488;46.934;8.276;2023-09-08T09:33:14;629.97;;;401.55;;
57231;SDS011;43488;46.934;8.276;2023-09-08T09:35:49;645.03;;;349.30;;
57231;SDS011;43488;46.934;8.276;2023-09-08T09:38:19;619.33;;;380.88;;
57231;SDS011;43488;46.934;8.276;2023-09-08T09:40:47;640.60;;;365.95;;
57231;SDS011;43488;46.934;8.276;2023-09-08T09:43:15;632.28;;;449.67;;
57231;SDS011;43488;46.934;8.276;2023-09-08T09:45:43;618.97;;;414.13;;
57231;SDS011;43488;46.934;8.276;2023-09-08T09:48:11;640.45;;;388.95;;
57231;SDS011;43488;46.934;8.276;2023-09-08T09:50:40;626.20;;;393.75;;
57231;SDS011;43488;46.934;8.276;2023-09-08T09:53:11;649.42;;;366.20;;
57231;SDS011;43488;46.934;8.276;2023-09-08T09:55:41;627.95;;;407.52;;
57231;SDS011;43488;46.934;8.276;2023-09-08T09:58:12;625.90;;;412.42;;
57231;SDS011;43488;46.934;8.276;2023-09-08T10:00:42;641.08;;;361.08;;
57231;SDS011;43488;46.934;8.276;2023-09-08T10:03:14;626.20;;;392.70;;
57231;SDS011;43488;46.934;8.276;2023-09-08T10:05:41;642.55;;;374.50;;
57231;SDS011;43488;46.934;8.276;2023-09-08T10:08:09;636.63;;;334.20;;
57231;SDS011;43488;46.934;8.276;2023-09-08T10:10:36;626.95;;;415.38;;
57231;SDS011;43488;46.934;8.276;2023-09-08T10:13:06;644.42;;;355.13;;
57231;SDS011;43488;46.934;8.276;2023-09-08T10:15:33;628.85;;;388.08;;
57231;SDS011;43488;46.934;8.276;2023-09-08T10:18:03;646.47;;;359.30;;
57231;SDS011;43488;46.934;8.276;2023-09-08T10:20:32;631.67;;;417.20;;
57231;SDS011;43488;46.934;8.276;2023-09-08T10:23:06;649.33;;;378.92;;
57231;SDS011;43488;46.934;8.276;2023-09-08T10:25:42;650.03;;;375.60;;
57231;SDS011;43488;46.934;8.276;2023-09-08T10:28:15;630.92;;;414.20;;
57231;SDS011;43488;46.934;8.276;2023-09-08T10:30:44;648.05;;;358.05;;
57231;SDS011;43488;46.934;8.276;2023-09-08T10:33:11;638.63;;;427.48;;
57231;SDS011;43488;46.934;8.276;2023-09-08T10:35:41;647.03;;;371.17;;
57231;SDS011;43488;46.934;8.276;2023-09-08T10:43:47;640.05;;;427.20;;
57231;SDS011;43488;46.934;8.276;2023-09-08T10:46:23;639.85;;;434.58;;
57231;SDS011;43488;46.934;8.276;2023-09-08T10:48:54;641.08;;;369.92;;
57231;SDS011;43488;46.934;8.276;2023-09-08T10:51:28;634.30;;;437.90;;
57231;SDS011;43488;46.934;8.276;2023-09-08T10:53:56;642.17;;;375.00;;
57231;SDS011;43488;46.934;8.276;2023-09-08T10:56:29;636.50;;;421.20;;
57231;SDS011;43488;46.934;8.276;2023-09-08T10:59:29;642.65;;;422.33;;
57231;SDS011;43488;46.934;8.276;2023-09-08T11:02:04;659.03;;;378.20;;
57231;SDS011;43488;46.934;8.276;2023-09-08T11:04:32;656.27;;;340.47;;
57231;SDS011;43488;46.934;8.276;2023-09-08T11:07:02;654.60;;;356.27;;
57231;SDS011;43488;46.934;8.276;2023-09-08T11:09:34;662.20;;;378.90;;
57231;SDS011;43488;46.934;8.276;2023-09-08T11:12:03;644.35;;;414.42;;
57231;SDS011;43488;46.934;8.276;2023-09-08T11:14:34;653.72;;;364.08;;
57231;SDS011;43488;46.934;8.276;2023-09-08T11:17:02;659.95;;;368.75;;
57231;SDS011;43488;46.934;8.276;2023-09-08T11:19:46;652.45;;;388.38;;
57231;SDS011;43488;46.934;8.276;2023-09-08T11:22:18;649.00;;;356.83;;
57231;SDS011;43488;46.934;8.276;2023-09-08T11:24:51;648.90;;;381.60;;
57231;SDS011;43488;46.934;8.276;2023-09-08T11:27:20;648.47;;;371.77;;
57231;SDS011;43488;46.934;8.276;2023-09-08T11:29:47;654.92;;;406.05;;
57231;SDS011;43488;46.934;8.276;2023-09-08T11:32:17;653.85;;;378.25;;
57231;SDS011;43488;46.934;8.276;2023-09-08T11:34:44;652.53;;;433.38;;
57231;SDS011;43488;46.934;8.276;2023-09-08T11:37:12;652.92;;;361.73;;
57231;SDS011;43488;46.934;8.276;2023-09-08T11:39:42;661.67;;;405.60;;
57231;SDS011;43488;46.934;8.276;2023-09-08T11:42:15;664.03;;;418.15;;
57231;SDS011;43488;46.934;8.276;2023-09-08T11:44:42;665.95;;;390.05;;
57231;SDS011;43488;46.934;8.276;2023-09-08T11:47:10;661.13;;;351.40;;
57231;SDS011;43488;46.934;8.276;2023-09-08T11:49:40;665.15;;;414.30;;
57231;SDS011;43488;46.934;8.276;2023-09-08T11:52:10;657.15;;;398.15;;
57231;SDS011;43488;46.934;8.276;2023-09-08T11:54:37;664.15;;;421.10;;
57231;SDS011;43488;46.934;8.276;2023-09-08T11:57:05;645.65;;;436.88;;
57231;SDS011;43488;46.934;8.276;2023-09-08T11:59:35;658.92;;;439.00;;
57231;SDS011;43488;46.934;8.276;2023-09-08T12:02:03;663.13;;;400.35;;
57231;SDS011;43488;46.934;8.276;2023-09-08T12:04:30;672.33;;;383.10;;
57231;SDS011;43488;46.934;8.276;2023-09-08T12:07:03;646.03;;;424.30;;
57231;SDS011;43488;46.934;8.276;2023-09-08T12:09:30;651.22;;;463.95;;
57231;SDS011;43488;46.934;8.276;2023-09-08T12:11:58;648.63;;;472.30;;
57231;SDS011;43488;46.934;8.276;2023-09-08T12:14:29;659.00;;;432.58;;
57231;SDS011;43488;46.934;8.276;2023-09-08T12:17:06;675.85;;;445.02;;
57231;SDS011;43488;46.934;8.276;2023-09-08T12:19:34;659.50;;;364.92;;
57231;SDS011;43488;46.934;8.276;2023-09-08T12:22:05;652.70;;;418.35;;
57231;SDS011;43488;46.934;8.276;2023-09-08T12:27:20;644.90;;;396.00;;
57231;SDS011;43488;46.934;8.276;2023-09-08T12:29:54;656.50;;;428.23;;
57231;SDS011;43488;46.934;8.276;2023-09-08T12:32:24;642.17;;;464.77;;
57231;SDS011;43488;46.934;8.276;2023-09-08T12:34:52;666.05;;;414.45;;
57231;SDS011;43488;46.934;8.276;2023-09-08T12:37:23;635.53;;;478.90;;
57231;SDS011;43488;46.934;8.276;2023-09-08T12:39:55;639.22;;;504.25;;
57231;SDS011;43488;46.934;8.276;2023-09-08T12:42:24;647.20;;;475.90;;
57231;SDS011;43488;46.934;8.276;2023-09-08T12:44:55;639.50;;;505.38;;
57231;SDS011;43488;46.934;8.276;2023-09-08T12:47:23;648.88;;;474.95;;
57231;SDS011;43488;46.934;8.276;2023-09-08T12:49:52;638.42;;;504.40;;
57231;SDS011;43488;46.934;8.276;2023-09-08T12:52:22;650.58;;;484.50;;
57231;SDS011;43488;46.934;8.276;2023-09-08T12:54:49;648.00;;;484.80;;
57231;SDS011;43488;46.934;8.276;2023-09-08T12:57:17;635.75;;;498.23;;
57231;SDS011;43488;46.934;8.276;2023-09-08T12:59:47;650.77;;;459.77;;
57231;SDS011;43488;46.934;8.276;2023-09-08T13:02:17;639.10;;;495.77;;
57231;SDS011;43488;46.934;8.276;2023-09-08T13:04:44;657.10;;;483.77;;
57231;SDS011;43488;46.934;8.276;2023-09-08T13:07:15;642.47;;;477.67;;
57231;SDS011;43488;46.934;8.276;2023-09-08T13:09:44;653.50;;;449.33;;
57231;SDS011;43488;46.934;8.276;2023-09-08T13:12:12;635.85;;;503.35;;
57231;SDS011;43488;46.934;8.276;2023-09-08T13:14:40;656.47;;;494.17;;
57231;SDS011;43488;46.934;8.276;2023-09-08T13:19:39;632.72;;;498.13;;
57231;SDS011;43488;46.934;8.276;2023-09-08T13:22:09;651.83;;;487.23;;
57231;SDS011;43488;46.934;8.276;2023-09-08T13:24:36;642.53;;;507.45;;
57231;SDS011;43488;46.934;8.276;2023-09-08T13:27:04;639.08;;;494.27;;
57231;SDS011;43488;46.934;8.276;2023-09-08T13:29:31;656.55;;;485.35;;
57231;SDS011;43488;46.934;8.276;2023-09-08T13:31:58;633.53;;;506.30;;
57231;SDS011;43488;46.934;8.276;2023-09-08T13:34:27;635.58;;;487.27;;
57231;SDS011;43488;46.934;8.276;2023-09-08T13:36:55;651.25;;;489.65;;
57231;SDS011;43488;46.934;8.276;2023-09-08T13:39:22;634.92;;;507.65;;
57231;SDS011;43488;46.934;8.276;2023-09-08T13:41:53;649.88;;;489.95;;
57231;SDS011;43488;46.934;8.276;2023-09-08T13:44:23;655.83;;;511.70;;
57231;SDS011;43488;46.934;8.276;2023-09-08T13:46:51;649.00;;;482.48;;
57231;SDS011;43488;46.934;8.276;2023-09-08T13:49:20;642.65;;;510.52;;
57231;SDS011;43488;46.934;8.276;2023-09-08T13:51:49;651.55;;;476.67;;
57231;SDS011;43488;46.934;8.276;2023-09-08T13:54:18;636.97;;;471.20;;
57231;SDS011;43488;46.934;8.276;2023-09-08T13:56:45;638.97;;;466.23;;
57231;SDS011;43488;46.934;8.276;2023-09-08T13:59:29;655.47;;;481.65;;
57231;SDS011;43488;46.934;8.276;2023-09-08T14:01:57;657.65;;;476.20;;
57231;SDS011;43488;46.934;8.276;2023-09-08T14:04:27;636.40;;;493.63;;
57231;SDS011;43488;46.934;8.276;2023-09-08T14:06:54;647.92;;;470.55;;
57231;SDS011;43488;46.934;8.276;2023-09-08T14:09:21;660.53;;;492.58;;
57231;SDS011;43488;46.934;8.276;2023-09-08T14:11:49;638.22;;;467.00;;
57231;SDS011;43488;46.934;8.276;2023-09-08T14:14:16;640.47;;;495.50;;
57231;SDS011;43488;46.934;8.276;2023-09-08T14:16:44;640.83;;;471.65;;
57231;SDS011;43488;46.934;8.276;2023-09-08T14:19:12;664.50;;;484.25;;
57231;SDS011;43488;46.934;8.276;2023-09-08T14:21:40;637.10;;;494.63;;